SRCO2: Rock Creek nr Sulphur 2SW

Data processed at Fri Oct 12 2018 23:32


All information presented herein is the property of the government of the United States of America and may be revised or deleted at any time without prior notice.
Dissemination of this information without the expressed written consent of the Public Affairs Office, Tulsa District U.S. Army Corps of Engineers is strictly prohibited.
These data are gathered electronically and, as presented, have not undergone any form of quality control. These data are not guaranteed to be valid or correct.
Go to home page.
Go to station list.
Go to home page.

Downstream station:


Previous Day
Next Day
Current Day
    
SHEF ID:       SRCO2     Rock Creek at Sulphur, OK
STATION TYPE:  

                STAGE  RIV-FLOW  BAT-LOAD
                   ft       cfs      volt
              Ccp-Rev   Ccp-Rev   Ccp-Rev
(US/Central)
10/12 00:00      6.69        63     12.57
10/12 01:00      6.70        64     12.57
10/12 02:00      6.76        70     12.49
10/12 03:00      6.74        68     12.49
10/12 04:00      6.74        68     12.49
10/12 05:00      6.65       122     12.49
10/12 06:00      6.72       132     12.41
10/12 07:00      6.73       134     12.41
10/12 08:00      6.67       125     12.41
10/12 09:00      6.76       138     12.41
10/12 10:00      7.03       185     12.41
10/12 11:00      6.85       153     12.49
10/12 12:00      6.93       166     12.73
10/12 13:00      7.00       179     12.57
10/12 14:00      6.85       153     12.57
10/12 15:00      6.96       172     12.73
10/12 16:00      6.91       163     12.65
10/12 17:00      7.36       254     12.49
10/12 18:00      6.85       153     12.41
10/12 19:00      6.86       154     12.41
10/12 20:00      ----      ----     12.41
10/12 21:00      ----      ----     12.41
10/12 22:00      ----      ----     12.41
10/12 23:00      ----      ----      ----